West Leyden, New York
Current Conditions -  °F | °C
As of 6:53 AM on Thursday 29 Jan 2015 (Local Time) from KRME Reporting Station
Clear Clear  
Wind Chill: -10°   Ceiling: Unl
Heat Index:   Visibility: 10mi
Dew Point: -7°   Wind: 5mph
Humidity: 72%   Direction: 120°ESE
Pressure: 30.3"   Gusts: NA
Location:  43.46°N, 75.46°W
Report Text: KRME 291153Z 12004KT 10SM CLR M18/M22 A3030 RMK AO2 SLP270 T11781217 11167 21189 56008
Loading
Personal Weather Stations






























Interactive Weather Map New forecast layout! Learn more

10-Day Weather Forecast

Advertisements
Track Severe Weather on mobile